Indianola, Iowa
Current Conditions -  °F | °C
As of 5:54 AM on Thursday 27 Nov 2014 (Local Time) from KDSM Reporting Station
Few Clouds Few Clouds  
Wind Chill: -8°   Ceiling: Unl
Heat Index:   Visibility: 10mi
Dew Point:   Wind: 13mph
Humidity: 70%   Direction: 320°NW
Pressure: 30.5"   Gusts: NA
Location:  41.36°N, 93.56°W
Report Text: KDSM 271154Z 32011KT 10SM FEW008 FEW015 M13/M18 A3050 RMK AO2 SLP345 4/002 60000 70007 T11331178 11056 21133 53019
Loading
Personal Weather Stations






























Interactive Weather Map New forecast layout! Learn more

10-Day Weather Forecast

Advertisements
Track Severe Weather on mobile